createdAt,value
2017-01-05T00:00:39.938Z,0
2017-01-05T00:01:20.531Z,0
2017-01-05T00:02:01.108Z,0
2017-01-05T00:02:41.718Z,0
2017-01-05T00:03:22.331Z,0
2017-01-05T00:04:02.931Z,0
2017-01-05T00:04:43.530Z,0
2017-01-05T00:05:24.125Z,0
2017-01-05T00:06:04.716Z,0
2017-01-05T00:06:45.301Z,0
2017-01-05T00:07:25.890Z,0
2017-01-05T00:08:06.490Z,0
2017-01-05T00:08:47.092Z,0
2017-01-05T00:09:27.693Z,0
2017-01-05T00:10:08.295Z,0
2017-01-05T00:10:48.898Z,0
2017-01-05T00:11:29.471Z,0
2017-01-05T00:12:10.059Z,0
2017-01-05T00:12:50.653Z,0
2017-01-05T00:13:31.236Z,0
2017-01-05T00:14:11.812Z,0
2017-01-05T00:14:52.397Z,0
2017-01-05T00:15:32.995Z,0
2017-01-05T00:16:13.574Z,0
2017-01-05T00:16:54.163Z,0
2017-01-05T00:17:34.750Z,0
2017-01-05T00:18:15.329Z,0
2017-01-05T00:18:55.918Z,0
2017-01-05T00:19:36.519Z,0
2017-01-05T00:20:17.108Z,0
2017-01-05T00:20:57.688Z,0
2017-01-05T00:21:38.285Z,0
2017-01-05T00:22:18.869Z,0
2017-01-05T00:22:59.471Z,0
2017-01-05T00:23:40.060Z,0
2017-01-05T00:24:20.642Z,0
2017-01-05T00:25:01.231Z,0
2017-01-05T00:25:41.832Z,0
2017-01-05T00:26:22.418Z,0
2017-01-05T00:27:02.991Z,0
2017-01-05T00:27:43.592Z,0
2017-01-05T00:28:24.186Z,0
2017-01-05T00:29:04.780Z,0
2017-01-05T00:29:46.207Z,0
2017-01-05T00:30:26.787Z,0
2017-01-05T00:31:07.366Z,0
2017-01-05T00:31:47.961Z,0
2017-01-05T00:32:28.547Z,0
2017-01-05T00:33:09.126Z,0
2017-01-05T00:33:49.703Z,0
2017-01-05T00:34:30.290Z,0
2017-01-05T00:35:10.881Z,0
2017-01-05T00:35:51.467Z,0
2017-01-05T00:36:32.070Z,0
2017-01-05T00:37:12.651Z,0
2017-01-05T00:37:53.233Z,0
2017-01-05T00:38:33.842Z,0
2017-01-05T00:39:14.444Z,0
2017-01-05T00:39:55.036Z,0
2017-01-05T00:40:35.624Z,0
2017-01-05T00:41:16.209Z,0
2017-01-05T00:41:56.800Z,0
2017-01-05T00:42:37.397Z,0
2017-01-05T00:43:18.002Z,0
2017-01-05T00:43:58.605Z,0
2017-01-05T00:44:39.206Z,0
2017-01-05T00:45:19.804Z,0
2017-01-05T00:46:00.411Z,0
2017-01-05T00:46:40.996Z,0
2017-01-05T00:47:21.588Z,0
2017-01-05T00:48:02.193Z,0
2017-01-05T00:48:42.781Z,0
2017-01-05T00:49:23.370Z,0
2017-01-05T00:50:03.955Z,0
2017-01-05T00:50:44.558Z,0
2017-01-05T00:51:25.150Z,0
2017-01-05T00:52:05.762Z,0
2017-01-05T00:52:46.341Z,0
2017-01-05T00:53:26.930Z,0
2017-01-05T00:54:07.527Z,0
2017-01-05T00:54:48.118Z,0
2017-01-05T00:55:28.719Z,0
2017-01-05T00:56:09.308Z,0
2017-01-05T00:56:49.905Z,0
2017-01-05T00:57:30.484Z,0
2017-01-05T00:58:11.074Z,0
2017-01-05T00:58:51.665Z,0
2017-01-05T00:59:32.247Z,0
2017-01-05T01:00:12.828Z,0
2017-01-05T01:00:53.407Z,0
2017-01-05T01:01:33.987Z,0
2017-01-05T01:02:14.572Z,0
2017-01-05T01:02:55.170Z,0
2017-01-05T01:03:35.749Z,0
2017-01-05T01:04:16.337Z,0
2017-01-05T01:04:56.923Z,0
2017-01-05T01:05:37.519Z,0
2017-01-05T01:06:18.114Z,0
2017-01-05T01:06:58.700Z,0
2017-01-05T01:07:39.294Z,0
2017-01-05T01:08:19.884Z,0
2017-01-05T01:09:00.472Z,0
2017-01-05T01:09:41.060Z,0
2017-01-05T01:10:21.649Z,0
2017-01-05T01:11:02.237Z,0
2017-01-05T01:11:42.823Z,0
2017-01-05T01:12:23.417Z,0
2017-01-05T01:13:03.996Z,0
2017-01-05T01:13:44.583Z,0
2017-01-05T01:14:25.168Z,0
2017-01-05T01:15:05.762Z,0
2017-01-05T01:15:46.348Z,0
2017-01-05T01:16:26.926Z,0
2017-01-05T01:17:07.511Z,0
2017-01-05T01:17:48.099Z,0
2017-01-05T01:18:28.680Z,0
2017-01-05T01:19:09.263Z,0
2017-01-05T01:19:49.855Z,0
2017-01-05T01:20:30.450Z,0
2017-01-05T01:21:11.052Z,0
2017-01-05T01:21:51.643Z,0
2017-01-05T01:22:32.221Z,0
2017-01-05T01:23:12.812Z,0
2017-01-05T01:23:53.398Z,0
2017-01-05T01:24:33.974Z,0
2017-01-05T01:25:14.563Z,0
2017-01-05T01:25:55.160Z,0
2017-01-05T01:26:35.727Z,0
2017-01-05T01:27:16.323Z,0
2017-01-05T01:27:56.932Z,0
2017-01-05T01:28:37.526Z,0
2017-01-05T01:29:18.117Z,0
2017-01-05T01:29:58.724Z,0
2017-01-05T01:30:39.305Z,0
2017-01-05T01:31:19.890Z,0
2017-01-05T01:32:00.488Z,0
2017-01-05T01:32:41.085Z,0
2017-01-05T01:33:21.677Z,0
2017-01-05T01:34:02.260Z,0
2017-01-05T01:34:42.838Z,0
2017-01-05T01:35:23.428Z,0
2017-01-05T01:36:04.019Z,0
2017-01-05T01:36:44.602Z,0
2017-01-05T01:37:25.179Z,0
2017-01-05T01:38:05.782Z,0
2017-01-05T01:38:46.362Z,0
2017-01-05T01:39:26.973Z,0
2017-01-05T01:40:07.593Z,0
2017-01-05T01:40:48.183Z,0
2017-01-05T01:41:28.786Z,0
2017-01-05T01:42:09.377Z,0
2017-01-05T01:42:49.961Z,0
2017-01-05T01:43:30.560Z,0
2017-01-05T01:44:11.166Z,0
2017-01-05T01:44:51.750Z,0
2017-01-05T01:45:32.335Z,0
2017-01-05T01:46:12.918Z,0
2017-01-05T01:46:53.505Z,0
2017-01-05T01:47:34.089Z,0
2017-01-05T01:48:14.691Z,0
2017-01-05T01:48:55.277Z,0
2017-01-05T01:49:35.867Z,0
2017-01-05T01:50:16.456Z,0
2017-01-05T01:50:57.045Z,0
2017-01-05T01:51:37.638Z,0
2017-01-05T01:52:18.224Z,0
2017-01-05T01:52:58.828Z,0
2017-01-05T01:53:39.405Z,0
2017-01-05T01:54:20.006Z,0
2017-01-05T01:55:00.603Z,0
2017-01-05T01:55:41.182Z,0
2017-01-05T01:56:21.785Z,0
2017-01-05T01:57:02.371Z,0
2017-01-05T01:57:42.950Z,0
2017-01-05T01:58:23.540Z,0
2017-01-05T01:59:04.132Z,0
2017-01-05T01:59:44.716Z,0
2017-01-05T02:00:25.298Z,0
2017-01-05T02:01:05.883Z,0
2017-01-05T02:01:46.482Z,0
2017-01-05T02:02:27.074Z,0
2017-01-05T02:03:07.649Z,0
2017-01-05T02:03:48.236Z,0
2017-01-05T02:04:28.822Z,0
2017-01-05T02:05:09.401Z,0
2017-01-05T02:05:49.991Z,0
2017-01-05T02:06:30.572Z,0
2017-01-05T02:07:11.157Z,0
2017-01-05T02:07:51.744Z,0
2017-01-05T02:08:32.337Z,0
2017-01-05T02:09:12.931Z,0
2017-01-05T02:09:53.523Z,0
2017-01-05T02:10:34.108Z,0
2017-01-05T02:11:14.700Z,0
2017-01-05T02:11:55.293Z,0
2017-01-05T02:12:35.875Z,0
2017-01-05T02:13:16.467Z,0
2017-01-05T02:13:57.053Z,0
2017-01-05T02:14:37.638Z,0
2017-01-05T02:15:18.225Z,0
2017-01-05T02:15:58.823Z,0
2017-01-05T02:16:39.403Z,0
2017-01-05T02:17:19.989Z,0
2017-01-05T02:18:00.570Z,0
2017-01-05T02:18:41.148Z,0
2017-01-05T02:19:21.732Z,0
2017-01-05T02:20:02.324Z,0
2017-01-05T02:20:42.936Z,0
2017-01-05T02:21:23.512Z,0
2017-01-05T02:22:04.109Z,0
2017-01-05T02:22:44.690Z,0
2017-01-05T02:23:25.286Z,0
2017-01-05T02:24:05.896Z,0
2017-01-05T02:24:46.492Z,0
2017-01-05T02:25:27.104Z,0
2017-01-05T02:26:07.692Z,0
2017-01-05T02:26:48.284Z,0
2017-01-05T02:27:28.859Z,0
2017-01-05T02:28:09.451Z,0
2017-01-05T02:28:50.056Z,0
2017-01-05T02:29:30.653Z,0
2017-01-05T02:30:11.259Z,0
2017-01-05T02:30:51.857Z,0
2017-01-05T02:31:32.463Z,0
2017-01-05T02:32:13.058Z,0
2017-01-05T02:32:53.664Z,0
2017-01-05T02:33:34.257Z,0
2017-01-05T02:34:14.844Z,0
2017-01-05T02:34:55.426Z,0
2017-01-05T02:35:36.011Z,0
2017-01-05T02:36:16.608Z,0
2017-01-05T02:36:57.193Z,0
2017-01-05T02:37:37.776Z,0
2017-01-05T02:38:18.360Z,0
2017-01-05T02:38:58.970Z,0
2017-01-05T02:39:39.571Z,0
2017-01-05T02:40:20.155Z,0
2017-01-05T02:41:00.749Z,0
2017-01-05T02:41:41.333Z,0
2017-01-05T02:42:21.919Z,0
2017-01-05T02:43:02.513Z,0
2017-01-05T02:43:43.094Z,0
2017-01-05T02:44:23.683Z,0
2017-01-05T02:45:04.264Z,0
2017-01-05T02:45:44.848Z,0
2017-01-05T02:46:25.445Z,0
2017-01-05T02:47:06.051Z,0
2017-01-05T02:47:46.637Z,0
2017-01-05T02:48:27.241Z,0
2017-01-05T02:49:07.830Z,0
2017-01-05T02:49:48.425Z,0
2017-01-05T02:50:29.005Z,0
2017-01-05T02:51:09.605Z,0
2017-01-05T02:51:50.203Z,0
2017-01-05T02:52:30.812Z,0
2017-01-05T02:53:11.406Z,0
2017-01-05T02:53:51.996Z,0
2017-01-05T02:54:32.607Z,0
2017-01-05T02:55:13.187Z,0
2017-01-05T02:55:53.796Z,0
2017-01-05T02:56:34.386Z,0
2017-01-05T02:57:14.973Z,0
2017-01-05T02:57:55.568Z,0
2017-01-05T02:58:36.150Z,0
2017-01-05T02:59:16.758Z,0
2017-01-05T02:59:57.362Z,0
2017-01-05T03:00:37.938Z,0
2017-01-05T03:01:18.519Z,0
2017-01-05T03:01:59.126Z,0
2017-01-05T03:02:39.720Z,0
2017-01-05T03:03:20.312Z,0
2017-01-05T03:04:00.915Z,0
2017-01-05T03:04:41.507Z,0
2017-01-05T03:05:22.087Z,0
2017-01-05T03:06:02.679Z,0
2017-01-05T03:06:43.278Z,0
2017-01-05T03:07:23.882Z,0
2017-01-05T03:08:04.495Z,0
2017-01-05T03:08:45.094Z,0
2017-01-05T03:09:25.682Z,0
2017-01-05T03:10:06.272Z,0
2017-01-05T03:10:46.850Z,0
2017-01-05T03:11:27.453Z,0
2017-01-05T03:12:08.043Z,0
2017-01-05T03:12:48.639Z,0
2017-01-05T03:13:29.220Z,0
2017-01-05T03:14:09.811Z,0
2017-01-05T03:14:50.402Z,0
2017-01-05T03:15:30.992Z,0
2017-01-05T03:16:11.595Z,0
2017-01-05T03:16:52.179Z,0
2017-01-05T03:17:32.762Z,0
2017-01-05T03:18:13.359Z,0
2017-01-05T03:18:53.944Z,0
2017-01-05T03:19:34.548Z,0
2017-01-05T03:20:15.125Z,0
2017-01-05T03:20:55.725Z,0
2017-01-05T03:21:36.308Z,0
2017-01-05T03:22:16.897Z,0
2017-01-05T03:22:57.471Z,0
2017-01-05T03:23:38.064Z,0
2017-01-05T03:24:18.673Z,0
2017-01-05T03:24:59.256Z,0
2017-01-05T03:25:39.836Z,0
2017-01-05T03:26:20.426Z,0
2017-01-05T03:27:01.008Z,0
2017-01-05T03:27:41.610Z,0
2017-01-05T03:28:22.190Z,0
2017-01-05T03:29:02.774Z,0
2017-01-05T03:29:43.365Z,0
2017-01-05T03:30:23.964Z,0
2017-01-05T03:31:04.567Z,0
2017-01-05T03:31:45.152Z,0
2017-01-05T03:32:25.738Z,0
2017-01-05T03:33:06.320Z,0
2017-01-05T03:33:46.904Z,0
2017-01-05T03:34:27.488Z,0
2017-01-05T03:35:08.073Z,0
2017-01-05T03:35:48.649Z,0
2017-01-05T03:36:29.227Z,0
2017-01-05T03:37:09.805Z,0
2017-01-05T03:37:50.385Z,0
2017-01-05T03:38:30.977Z,0
2017-01-05T03:39:11.563Z,0
2017-01-05T03:39:52.144Z,0
2017-01-05T03:40:32.738Z,0
2017-01-05T03:41:13.338Z,0
2017-01-05T03:41:53.920Z,0
2017-01-05T03:42:34.504Z,0
2017-01-05T03:43:15.093Z,0
2017-01-05T03:43:55.688Z,0
2017-01-05T03:44:36.270Z,0
2017-01-05T03:45:16.854Z,0
2017-01-05T03:45:57.451Z,0
2017-01-05T03:46:38.040Z,0
2017-01-05T03:47:18.624Z,0
2017-01-05T03:47:59.209Z,0
2017-01-05T03:48:39.835Z,0
2017-01-05T03:49:20.406Z,0
2017-01-05T03:50:00.986Z,0
2017-01-05T03:50:41.570Z,0
2017-01-05T03:51:22.163Z,0
2017-01-05T03:52:02.745Z,0
2017-01-05T03:52:43.316Z,0
2017-01-05T03:53:23.911Z,0
2017-01-05T03:54:04.512Z,0
2017-01-05T03:54:45.104Z,0
2017-01-05T03:55:25.688Z,0
2017-01-05T03:56:06.274Z,0
2017-01-05T03:56:46.863Z,0
2017-01-05T03:57:27.449Z,0
2017-01-05T03:58:08.026Z,0
2017-01-05T03:58:48.623Z,0
2017-01-05T03:59:29.208Z,0
2017-01-05T04:00:09.792Z,0
2017-01-05T04:00:50.382Z,0
2017-01-05T04:01:30.961Z,0
2017-01-05T04:02:11.556Z,0
2017-01-05T04:02:52.141Z,0
2017-01-05T04:03:32.720Z,0
2017-01-05T04:04:13.301Z,0
2017-01-05T04:04:53.882Z,0
2017-01-05T04:05:34.461Z,0
2017-01-05T04:06:15.057Z,0
2017-01-05T04:06:55.644Z,0
2017-01-05T04:07:36.217Z,0
2017-01-05T04:08:16.820Z,0
2017-01-05T04:08:57.404Z,0
2017-01-05T04:09:38.009Z,0
2017-01-05T04:10:18.599Z,0
2017-01-05T04:10:59.203Z,0
2017-01-05T04:11:39.805Z,0
2017-01-05T04:12:20.390Z,0
2017-01-05T04:13:00.973Z,0
2017-01-05T04:13:41.565Z,0
2017-01-05T04:14:22.162Z,0
2017-01-05T04:15:02.774Z,0
2017-01-05T04:15:43.372Z,0
2017-01-05T04:16:23.969Z,0
2017-01-05T04:17:04.567Z,0
2017-01-05T04:17:45.146Z,0
2017-01-05T04:18:25.728Z,0
2017-01-05T04:19:06.337Z,0
2017-01-05T04:19:46.935Z,0
2017-01-05T04:20:27.527Z,0
2017-01-05T04:21:08.122Z,0
2017-01-05T04:21:48.693Z,0
2017-01-05T04:22:29.293Z,0
2017-01-05T04:23:09.881Z,0
2017-01-05T04:23:50.467Z,0
2017-01-05T04:24:31.051Z,0
2017-01-05T04:25:11.643Z,0
2017-01-05T04:25:52.222Z,0
2017-01-05T04:26:32.803Z,0
2017-01-05T04:27:13.396Z,0
2017-01-05T04:27:53.976Z,0
2017-01-05T04:28:34.552Z,0
2017-01-05T04:29:15.149Z,0
2017-01-05T04:29:55.733Z,0
2017-01-05T04:30:36.308Z,0
2017-01-05T04:31:16.903Z,0
2017-01-05T04:31:57.478Z,0
2017-01-05T04:32:38.095Z,0
2017-01-05T04:33:18.683Z,0
2017-01-05T04:33:59.270Z,0
2017-01-05T04:34:39.871Z,0
2017-01-05T04:35:20.464Z,0
2017-01-05T04:36:01.839Z,0
2017-01-05T04:36:42.425Z,0
2017-01-05T04:37:23.003Z,0
2017-01-05T04:38:03.590Z,0
2017-01-05T04:38:44.205Z,0
2017-01-05T04:39:24.792Z,0
2017-01-05T04:40:05.389Z,0
2017-01-05T04:40:45.972Z,0
2017-01-05T04:41:26.567Z,0
2017-01-05T04:42:07.172Z,0
2017-01-05T04:42:47.759Z,0
2017-01-05T04:43:28.350Z,0
2017-01-05T04:44:08.943Z,0
2017-01-05T04:44:49.529Z,0
2017-01-05T04:45:30.144Z,0
2017-01-05T04:46:10.722Z,0
2017-01-05T04:46:51.302Z,0
2017-01-05T04:47:31.897Z,0
2017-01-05T04:48:12.483Z,0
2017-01-05T04:48:53.072Z,0
2017-01-05T04:49:33.672Z,0
2017-01-05T04:50:14.254Z,0
2017-01-05T04:50:54.856Z,0
2017-01-05T04:51:35.448Z,0
2017-01-05T04:52:16.047Z,0
2017-01-05T04:52:56.645Z,0
2017-01-05T04:53:37.229Z,0
2017-01-05T04:54:17.814Z,0
2017-01-05T04:54:58.403Z,0
2017-01-05T04:55:38.997Z,0
2017-01-05T04:56:19.585Z,0
2017-01-05T04:57:00.174Z,0
2017-01-05T04:57:40.753Z,0
2017-01-05T04:58:21.333Z,0
2017-01-05T04:59:01.929Z,0
2017-01-05T04:59:42.511Z,0
2017-01-05T05:00:23.098Z,0
2017-01-05T05:01:03.690Z,0
2017-01-05T05:01:44.277Z,0
2017-01-05T05:02:24.855Z,0
2017-01-05T05:03:05.452Z,0
2017-01-05T05:03:46.042Z,0
2017-01-05T05:04:26.644Z,0
2017-01-05T05:05:07.233Z,0
2017-01-05T05:05:47.827Z,0
2017-01-05T05:06:28.402Z,0
2017-01-05T05:07:08.987Z,0
2017-01-05T05:07:49.571Z,0
2017-01-05T05:08:30.151Z,0
2017-01-05T05:09:10.738Z,0
2017-01-05T05:09:51.337Z,0
2017-01-05T05:10:31.931Z,0
2017-01-05T05:11:12.539Z,0
2017-01-05T05:11:53.122Z,0
2017-01-05T05:12:33.715Z,0
2017-01-05T05:13:14.307Z,0
2017-01-05T05:13:54.903Z,0
2017-01-05T05:14:35.488Z,0
2017-01-05T05:15:16.081Z,0
2017-01-05T05:15:56.689Z,0
2017-01-05T05:16:37.267Z,0
2017-01-05T05:17:17.847Z,0
2017-01-05T05:17:58.443Z,0
2017-01-05T05:18:39.039Z,0
2017-01-05T05:19:19.618Z,0
2017-01-05T05:20:00.205Z,0
2017-01-05T05:20:40.796Z,0
2017-01-05T05:21:21.370Z,0
2017-01-05T05:22:01.956Z,0
2017-01-05T05:22:42.547Z,0
2017-01-05T05:23:23.130Z,0
2017-01-05T05:24:03.723Z,0
2017-01-05T05:24:44.321Z,0
2017-01-05T05:25:24.906Z,0
2017-01-05T05:26:05.490Z,0
2017-01-05T05:26:46.088Z,0
2017-01-05T05:27:26.671Z,0
2017-01-05T05:28:07.260Z,0
2017-01-05T05:28:47.845Z,0
2017-01-05T05:29:28.433Z,0
2017-01-05T05:30:09.015Z,0
2017-01-05T05:30:49.599Z,0
2017-01-05T05:31:30.180Z,0
2017-01-05T05:32:10.778Z,0
2017-01-05T05:32:51.371Z,0
2017-01-05T05:33:31.968Z,0
2017-01-05T05:34:12.555Z,0
2017-01-05T05:34:53.139Z,0
2017-01-05T05:35:33.727Z,0
2017-01-05T05:36:14.307Z,0
2017-01-05T05:36:54.891Z,0
2017-01-05T05:37:35.477Z,0
2017-01-05T05:38:16.056Z,0
2017-01-05T05:38:56.652Z,0
2017-01-05T05:39:37.255Z,0
2017-01-05T05:40:17.846Z,0
2017-01-05T05:40:58.422Z,0
2017-01-05T05:41:39.022Z,0
2017-01-05T05:42:19.603Z,0
2017-01-05T05:43:00.202Z,0
2017-01-05T05:43:40.786Z,0
2017-01-05T05:44:21.359Z,0
2017-01-05T05:45:01.975Z,0
2017-01-05T05:45:42.570Z,0
2017-01-05T05:46:23.173Z,0
2017-01-05T05:47:03.775Z,0
2017-01-05T05:47:44.389Z,0
2017-01-05T05:48:24.983Z,0
2017-01-05T05:49:05.562Z,0
2017-01-05T05:49:46.149Z,0
2017-01-05T05:50:26.741Z,0
2017-01-05T05:51:07.326Z,0
2017-01-05T05:51:47.916Z,0
2017-01-05T05:52:28.505Z,0
2017-01-05T05:53:09.094Z,0
2017-01-05T05:53:49.686Z,0
2017-01-05T05:54:30.279Z,0
2017-01-05T05:55:10.857Z,0
2017-01-05T05:55:51.454Z,0
2017-01-05T05:56:32.054Z,0
2017-01-05T05:57:12.629Z,0
2017-01-05T05:57:53.207Z,0
2017-01-05T05:58:33.810Z,0
2017-01-05T05:59:14.400Z,0
2017-01-05T05:59:54.991Z,0
2017-01-05T06:00:35.574Z,0
2017-01-05T06:01:16.165Z,0
2017-01-05T06:01:56.753Z,0
2017-01-05T06:02:37.355Z,0
2017-01-05T06:03:17.947Z,0
2017-01-05T06:03:58.525Z,0
2017-01-05T06:04:39.112Z,0
2017-01-05T06:05:19.695Z,0
2017-01-05T06:06:00.288Z,0
2017-01-05T06:06:40.871Z,0
2017-01-05T06:07:21.475Z,0
2017-01-05T06:08:02.065Z,0
2017-01-05T06:08:42.664Z,0
2017-01-05T06:09:23.256Z,0
2017-01-05T06:10:03.827Z,0
2017-01-05T06:10:44.405Z,0
2017-01-05T06:11:24.990Z,0
2017-01-05T06:12:05.604Z,0
2017-01-05T06:12:46.196Z,0
2017-01-05T06:13:26.781Z,0
2017-01-05T06:14:07.375Z,0
2017-01-05T06:14:47.964Z,0
2017-01-05T06:15:28.554Z,0
2017-01-05T06:16:09.148Z,0
2017-01-05T06:16:49.757Z,0
2017-01-05T06:17:30.335Z,0
2017-01-05T06:18:10.918Z,0
2017-01-05T06:18:51.496Z,0
2017-01-05T06:19:32.080Z,0
2017-01-05T06:20:12.660Z,0
2017-01-05T06:20:53.245Z,0
2017-01-05T06:21:33.823Z,0
2017-01-05T06:22:14.412Z,0
2017-01-05T06:22:55.001Z,0
2017-01-05T06:23:35.591Z,0
2017-01-05T06:24:16.176Z,0
2017-01-05T06:24:56.755Z,0
2017-01-05T06:25:37.349Z,0
2017-01-05T06:26:17.956Z,0
2017-01-05T06:26:58.545Z,0
2017-01-05T06:27:39.152Z,0
2017-01-05T06:28:19.765Z,0
2017-01-05T06:29:00.356Z,0
2017-01-05T06:29:40.938Z,0
2017-01-05T06:30:21.520Z,0
2017-01-05T06:31:02.114Z,0
2017-01-05T06:31:42.709Z,0
2017-01-05T06:32:23.295Z,0
2017-01-05T06:33:03.867Z,0
2017-01-05T06:33:44.457Z,0
2017-01-05T06:34:25.049Z,0
2017-01-05T06:35:05.627Z,0
2017-01-05T06:35:46.239Z,0
2017-01-05T06:36:26.822Z,0
2017-01-05T06:37:07.415Z,0
2017-01-05T06:37:48.012Z,0
2017-01-05T06:38:28.588Z,0
2017-01-05T06:39:09.178Z,0
2017-01-05T06:39:49.761Z,0
2017-01-05T06:40:30.342Z,0
2017-01-05T06:41:10.932Z,0
2017-01-05T06:41:51.510Z,0
2017-01-05T06:42:32.091Z,0
2017-01-05T06:43:12.680Z,0
2017-01-05T06:43:53.270Z,0
2017-01-05T06:44:33.852Z,0
2017-01-05T06:45:14.445Z,0
2017-01-05T06:45:55.031Z,0
2017-01-05T06:46:35.623Z,0
2017-01-05T06:47:16.200Z,0
2017-01-05T06:47:56.790Z,0
2017-01-05T06:48:37.393Z,0
2017-01-05T06:49:17.964Z,0
2017-01-05T06:49:58.565Z,0
2017-01-05T06:50:39.160Z,0
2017-01-05T06:51:19.750Z,0
2017-01-05T06:52:00.353Z,0
2017-01-05T06:52:40.943Z,0
2017-01-05T06:53:21.536Z,0
2017-01-05T06:54:02.132Z,0
2017-01-05T06:54:42.730Z,0
2017-01-05T06:55:23.324Z,0
2017-01-05T06:56:03.915Z,0
2017-01-05T06:56:44.518Z,0
2017-01-05T06:57:25.095Z,0
2017-01-05T06:58:05.667Z,0
2017-01-05T06:58:46.265Z,0
2017-01-05T06:59:26.867Z,0
2017-01-05T07:00:07.448Z,0
2017-01-05T07:00:48.030Z,0
2017-01-05T07:01:28.626Z,0
2017-01-05T07:02:09.203Z,0
2017-01-05T07:02:49.784Z,0
2017-01-05T07:03:30.379Z,0
2017-01-05T07:04:10.978Z,0
2017-01-05T07:04:51.552Z,0
2017-01-05T07:05:32.147Z,0
2017-01-05T07:06:12.762Z,0
2017-01-05T07:06:53.351Z,0
2017-01-05T07:07:33.951Z,0
2017-01-05T07:08:14.538Z,0
2017-01-05T07:08:55.120Z,0
2017-01-05T07:09:35.700Z,0
2017-01-05T07:10:16.296Z,0
2017-01-05T07:10:56.904Z,0
2017-01-05T07:11:37.502Z,0
2017-01-05T07:12:18.086Z,0
2017-01-05T07:12:58.679Z,0
2017-01-05T07:13:39.262Z,0
2017-01-05T07:14:19.849Z,0
2017-01-05T07:15:00.428Z,0
2017-01-05T07:15:41.022Z,0
2017-01-05T07:16:21.623Z,0
2017-01-05T07:17:02.211Z,4
2017-01-05T07:17:42.800Z,4
2017-01-05T07:18:23.412Z,4
2017-01-05T07:19:04.014Z,4
2017-01-05T07:19:44.612Z,0
2017-01-05T07:20:25.201Z,0
2017-01-05T07:21:05.798Z,0
2017-01-05T07:21:46.397Z,0
2017-01-05T07:22:26.996Z,4
2017-01-05T07:23:07.580Z,4
2017-01-05T07:23:48.189Z,0
2017-01-05T07:24:28.783Z,4
2017-01-05T07:25:09.403Z,4
2017-01-05T07:25:50.001Z,4
2017-01-05T07:26:30.602Z,4
2017-01-05T07:27:11.199Z,0
2017-01-05T07:27:51.805Z,4
2017-01-05T07:28:32.400Z,4
2017-01-05T07:29:13.003Z,4
2017-01-05T07:29:53.583Z,4
2017-01-05T07:30:34.176Z,4
2017-01-05T07:31:14.794Z,4
2017-01-05T07:31:55.379Z,4
2017-01-05T07:32:35.961Z,4
2017-01-05T07:33:16.567Z,8
2017-01-05T07:33:57.164Z,8
2017-01-05T07:34:37.763Z,8
2017-01-05T07:35:18.361Z,8
2017-01-05T07:35:58.948Z,4
2017-01-05T07:36:39.558Z,8
2017-01-05T07:37:20.145Z,8
2017-01-05T07:38:00.736Z,8
2017-01-05T07:38:41.327Z,8
2017-01-05T07:39:21.902Z,12
2017-01-05T07:40:02.509Z,8
2017-01-05T07:40:43.113Z,12
2017-01-05T07:41:23.693Z,8
2017-01-05T07:42:04.288Z,12
2017-01-05T07:42:44.861Z,12
2017-01-05T07:43:25.445Z,12
2017-01-05T07:44:06.025Z,12
2017-01-05T07:44:46.626Z,12
2017-01-05T07:45:27.231Z,12
2017-01-05T07:46:07.820Z,12
2017-01-05T07:46:48.398Z,16
2017-01-05T07:47:29.000Z,12
2017-01-05T07:48:09.579Z,16
2017-01-05T07:48:50.178Z,12
2017-01-05T07:49:30.786Z,16
2017-01-05T07:50:11.373Z,16
2017-01-05T07:50:51.970Z,16
2017-01-05T07:51:32.548Z,16
2017-01-05T07:52:13.144Z,20
2017-01-05T07:52:53.733Z,16
2017-01-05T07:53:34.320Z,16
2017-01-05T07:54:14.920Z,20
2017-01-05T07:54:55.527Z,20
2017-01-05T07:55:36.111Z,16
2017-01-05T07:56:16.707Z,20
2017-01-05T07:56:57.310Z,20
2017-01-05T07:57:37.894Z,20
2017-01-05T07:58:18.481Z,20
2017-01-05T07:58:59.081Z,20
2017-01-05T07:59:39.671Z,24
2017-01-05T08:00:20.264Z,24
2017-01-05T08:01:00.864Z,20
2017-01-05T08:01:41.456Z,24
2017-01-05T08:02:22.029Z,24
2017-01-05T08:03:02.634Z,24
2017-01-05T08:03:43.224Z,24
2017-01-05T08:04:23.834Z,24
2017-01-05T08:05:04.430Z,24
2017-01-05T08:05:45.043Z,28
2017-01-05T08:06:25.647Z,28
2017-01-05T08:07:06.234Z,24
2017-01-05T08:07:46.827Z,24
2017-01-05T08:08:27.410Z,28
2017-01-05T08:09:07.998Z,28
2017-01-05T08:09:48.594Z,28
2017-01-05T08:10:29.189Z,28
2017-01-05T08:11:09.787Z,28
2017-01-05T08:11:50.387Z,28
2017-01-05T08:12:30.974Z,28
2017-01-05T08:13:11.564Z,28
2017-01-05T08:13:52.138Z,32
2017-01-05T08:14:32.717Z,32
2017-01-05T08:15:13.303Z,28
2017-01-05T08:15:53.923Z,28
2017-01-05T08:16:34.527Z,32
2017-01-05T08:17:15.132Z,32
2017-01-05T08:17:55.760Z,32
2017-01-05T08:18:36.356Z,32
2017-01-05T08:19:16.953Z,32
2017-01-05T08:19:57.537Z,32
2017-01-05T08:20:38.134Z,32
2017-01-05T08:21:18.727Z,32
2017-01-05T08:21:59.310Z,32
2017-01-05T08:22:40.765Z,36
2017-01-05T08:23:20.515Z,36
2017-01-05T08:24:01.107Z,36
2017-01-05T08:24:41.691Z,32
2017-01-05T08:25:22.309Z,32
2017-01-05T08:26:02.896Z,32
2017-01-05T08:26:43.479Z,36
2017-01-05T08:27:24.071Z,36
2017-01-05T08:28:04.648Z,36
2017-01-05T08:28:45.238Z,36
2017-01-05T08:29:25.832Z,32
2017-01-05T08:30:06.429Z,36
2017-01-05T08:30:47.014Z,36
2017-01-05T08:31:27.627Z,36
2017-01-05T08:32:08.220Z,36
2017-01-05T08:32:48.815Z,36
2017-01-05T08:33:29.407Z,36
2017-01-05T08:34:10.004Z,40
2017-01-05T08:34:50.596Z,40
2017-01-05T08:35:31.214Z,40
2017-01-05T08:36:11.802Z,36
2017-01-05T08:36:52.404Z,36
2017-01-05T08:37:32.986Z,36
2017-01-05T08:38:13.569Z,40
2017-01-05T08:38:54.160Z,40
2017-01-05T08:39:34.760Z,40
2017-01-05T08:40:15.365Z,40
2017-01-05T08:40:55.966Z,40
2017-01-05T08:41:36.564Z,36
2017-01-05T08:42:17.157Z,40
2017-01-05T08:42:57.740Z,40
2017-01-05T08:43:38.318Z,40
2017-01-05T08:44:18.912Z,40
2017-01-05T08:44:59.550Z,40
2017-01-05T08:45:40.137Z,40
2017-01-05T08:46:20.773Z,40
2017-01-05T08:47:01.354Z,40
2017-01-05T08:47:41.981Z,44
2017-01-05T08:48:22.578Z,40
2017-01-05T08:49:03.177Z,40
2017-01-05T08:49:43.773Z,40
2017-01-05T08:50:24.354Z,40
2017-01-05T08:51:04.934Z,40
2017-01-05T08:51:45.521Z,40
2017-01-05T08:52:26.107Z,40
2017-01-05T08:53:06.693Z,40
2017-01-05T08:53:47.275Z,44
2017-01-05T08:54:27.855Z,44
2017-01-05T08:55:08.438Z,44
2017-01-05T08:55:49.032Z,44
2017-01-05T08:56:29.638Z,44
2017-01-05T08:57:10.237Z,44
2017-01-05T08:57:50.848Z,44
2017-01-05T08:58:31.449Z,44
2017-01-05T08:59:12.046Z,44
2017-01-05T08:59:52.640Z,40
2017-01-05T09:00:33.269Z,40
2017-01-05T09:01:13.860Z,44
2017-01-05T09:01:54.442Z,44
2017-01-05T09:02:35.041Z,44
2017-01-05T09:03:15.656Z,44
2017-01-05T09:03:56.243Z,44
2017-01-05T09:04:36.855Z,44
2017-01-05T09:05:17.458Z,44
2017-01-05T09:05:58.047Z,44
2017-01-05T09:06:38.646Z,44
2017-01-05T09:07:19.240Z,48
2017-01-05T09:07:59.823Z,48
2017-01-05T09:08:40.416Z,48
2017-01-05T09:09:20.993Z,44
2017-01-05T09:10:01.577Z,48
2017-01-05T09:10:42.169Z,48
2017-01-05T09:11:22.784Z,48
2017-01-05T09:12:03.385Z,48
2017-01-05T09:12:43.986Z,48
2017-01-05T09:13:24.566Z,48
2017-01-05T09:14:05.151Z,44
2017-01-05T09:14:45.741Z,44
2017-01-05T09:15:26.332Z,44
2017-01-05T09:16:06.920Z,44
2017-01-05T09:16:47.512Z,44
2017-01-05T09:17:28.140Z,44
2017-01-05T09:18:08.719Z,44
2017-01-05T09:18:49.306Z,44
2017-01-05T09:19:29.896Z,44
2017-01-05T09:20:10.556Z,44
2017-01-05T09:20:51.143Z,44
2017-01-05T09:21:31.742Z,44
2017-01-05T09:22:12.342Z,44
2017-01-05T09:22:52.928Z,44
2017-01-05T09:23:33.511Z,48
2017-01-05T09:24:14.099Z,48
2017-01-05T09:24:54.688Z,48
2017-01-05T09:25:35.281Z,48
2017-01-05T09:26:15.880Z,48
2017-01-05T09:26:56.472Z,48
2017-01-05T09:27:37.066Z,48
2017-01-05T09:28:17.667Z,48
2017-01-05T09:28:58.291Z,48
2017-01-05T09:29:38.885Z,48
2017-01-05T09:30:19.473Z,48
2017-01-05T09:31:00.094Z,48
2017-01-05T09:31:40.688Z,48
2017-01-05T09:32:21.269Z,48
2017-01-05T09:33:01.864Z,48
2017-01-05T09:33:42.447Z,44
2017-01-05T09:34:23.058Z,44
2017-01-05T09:35:03.686Z,44
2017-01-05T09:35:44.266Z,44
2017-01-05T09:36:24.845Z,44
2017-01-05T09:37:05.441Z,44
2017-01-05T09:37:46.023Z,44
2017-01-05T09:38:26.608Z,44
2017-01-05T09:39:07.192Z,44
2017-01-05T09:39:47.799Z,44
2017-01-05T09:40:28.410Z,48
2017-01-05T09:41:09.003Z,48
2017-01-05T09:41:49.599Z,44
2017-01-05T09:42:30.200Z,48
2017-01-05T09:43:10.799Z,48
2017-01-05T09:43:51.395Z,48
2017-01-05T09:44:32.014Z,48
2017-01-05T09:45:12.617Z,48
2017-01-05T09:45:53.217Z,48
2017-01-05T09:46:33.810Z,48
2017-01-05T09:47:14.412Z,48
2017-01-05T09:47:55.002Z,48
2017-01-05T09:48:35.588Z,48
2017-01-05T09:49:16.174Z,48
2017-01-05T09:49:56.754Z,48
2017-01-05T09:50:37.357Z,48
2017-01-05T09:51:17.957Z,48
2017-01-05T09:51:58.545Z,48
2017-01-05T09:52:39.141Z,48
2017-01-05T09:53:19.724Z,48
2017-01-05T09:54:00.329Z,48
2017-01-05T09:54:40.931Z,48
2017-01-05T09:55:21.519Z,48